createdAt,value
2023-01-29T00:00:18.952Z,28
2023-01-29T00:01:27.191Z,38
2023-01-29T00:02:35.350Z,38
2023-01-29T00:03:42.492Z,34
2023-01-29T00:04:50.561Z,32
2023-01-29T00:05:58.514Z,31
2023-01-29T00:07:10.319Z,34
2023-01-29T00:08:19.393Z,26
2023-01-29T00:09:26.668Z,38
2023-01-29T00:10:33.977Z,45
2023-01-29T00:11:41.417Z,34
2023-01-29T00:12:48.630Z,33
2023-01-29T00:13:56.661Z,30
2023-01-29T00:15:03.951Z,35
2023-01-29T00:16:12.369Z,30
2023-01-29T00:17:19.819Z,38
2023-01-29T00:18:26.813Z,33
2023-01-29T00:19:33.922Z,25
2023-01-29T00:20:41.965Z,40
2023-01-29T00:21:49.237Z,38
2023-01-29T00:22:56.366Z,30
2023-01-29T00:24:03.646Z,34
2023-01-29T00:25:11.987Z,32
2023-01-29T00:26:19.810Z,30
2023-01-29T00:27:28.015Z,33
2023-01-29T00:28:35.318Z,35
2023-01-29T00:29:42.647Z,36
2023-01-29T00:30:49.938Z,39
2023-01-29T00:31:56.975Z,36
2023-01-29T00:33:04.626Z,31
2023-01-29T00:34:12.707Z,29
2023-01-29T00:35:19.969Z,28
2023-01-29T00:36:27.834Z,35
2023-01-29T00:37:35.219Z,33
2023-01-29T00:38:42.179Z,41
2023-01-29T00:39:49.523Z,29
2023-01-29T00:40:57.697Z,29
2023-01-29T00:42:13.336Z,31
2023-01-29T00:43:26.444Z,32
2023-01-29T00:44:40.016Z,34
2023-01-29T00:45:53.270Z,38
2023-01-29T00:47:00.833Z,35
2023-01-29T00:48:10.300Z,33
2023-01-29T00:49:17.438Z,40
2023-01-29T00:50:25.226Z,25
2023-01-29T00:51:32.519Z,34
2023-01-29T00:52:40.047Z,28
2023-01-29T00:53:47.593Z,29
2023-01-29T00:54:54.496Z,37
2023-01-29T00:56:02.839Z,32
2023-01-29T00:57:10.714Z,30
2023-01-29T00:58:18.239Z,37
2023-01-29T00:59:26.715Z,42
2023-01-29T01:00:34.703Z,32
2023-01-29T01:01:42.855Z,31
2023-01-29T01:02:55.068Z,36
2023-01-29T01:04:08.298Z,41
2023-01-29T01:05:15.572Z,45
2023-01-29T01:06:23.245Z,38
2023-01-29T01:07:30.318Z,32
2023-01-29T01:08:38.620Z,28
2023-01-29T01:09:51.116Z,26
2023-01-29T01:11:03.491Z,25
2023-01-29T01:12:10.959Z,26
2023-01-29T01:13:18.155Z,25
2023-01-29T01:14:25.173Z,26
2023-01-29T01:15:32.519Z,27
2023-01-29T01:16:39.639Z,30
2023-01-29T01:17:46.679Z,28
2023-01-29T01:18:58.295Z,25
2023-01-29T01:20:07.347Z,37
2023-01-29T01:21:14.731Z,39
2023-01-29T01:22:22.695Z,25
2023-01-29T01:23:30.923Z,28
2023-01-29T01:24:38.044Z,25
2023-01-29T01:25:45.160Z,32
2023-01-29T01:26:53.468Z,32
2023-01-29T01:28:00.232Z,39
2023-01-29T01:29:07.652Z,25
2023-01-29T01:30:15.137Z,34
2023-01-29T01:31:22.923Z,26
2023-01-29T01:32:30.827Z,35
2023-01-29T01:33:38.104Z,25
2023-01-29T01:34:45.759Z,32
2023-01-29T01:35:53.378Z,38
2023-01-29T01:37:01.547Z,35
2023-01-29T01:38:08.807Z,25
2023-01-29T01:39:15.863Z,29
2023-01-29T01:40:23.570Z,26
2023-01-29T01:41:30.411Z,35
2023-01-29T01:42:40.572Z,35
2023-01-29T01:43:48.051Z,35
2023-01-29T01:45:00.576Z,29
2023-01-29T01:46:07.809Z,33
2023-01-29T01:47:15.987Z,38
2023-01-29T01:48:35.188Z,40
2023-01-29T01:49:42.361Z,25
2023-01-29T01:50:49.400Z,28
2023-01-29T01:52:01.891Z,34
2023-01-29T01:53:09.108Z,28
2023-01-29T01:54:20.256Z,33
2023-01-29T01:55:32.758Z,32
2023-01-29T01:56:43.518Z,28
2023-01-29T01:57:50.666Z,25
2023-01-29T01:58:57.635Z,35
2023-01-29T02:00:05.711Z,39
2023-01-29T02:01:13.930Z,35
2023-01-29T02:02:21.255Z,30
2023-01-29T02:03:33.923Z,26
2023-01-29T02:04:46.395Z,40
2023-01-29T02:05:58.921Z,25
2023-01-29T02:07:12.284Z,29
2023-01-29T02:08:24.828Z,25
2023-01-29T02:09:40.382Z,26
2023-01-29T02:10:58.118Z,28
2023-01-29T02:12:06.031Z,26
2023-01-29T02:13:15.760Z,25
2023-01-29T02:14:23.378Z,28
2023-01-29T02:15:31.295Z,27
2023-01-29T02:16:38.635Z,25
2023-01-29T02:17:46.571Z,28
2023-01-29T02:18:54.634Z,25
2023-01-29T02:20:02.893Z,39
2023-01-29T02:21:10.843Z,37
2023-01-29T02:22:28.586Z,36
2023-01-29T02:23:44.205Z,31
2023-01-29T02:25:04.307Z,30
2023-01-29T02:26:22.448Z,25
2023-01-29T02:27:40.052Z,25
2023-01-29T02:28:52.330Z,29
2023-01-29T02:30:05.563Z,35
2023-01-29T02:31:21.980Z,32
2023-01-29T02:32:39.586Z,56
2023-01-29T02:33:52.312Z,50
2023-01-29T02:35:04.862Z,32
2023-01-29T02:36:20.616Z,25
2023-01-29T02:37:36.559Z,26
2023-01-29T02:38:43.775Z,40
2023-01-29T02:40:01.601Z,28
2023-01-29T02:41:20.142Z,41
2023-01-29T02:42:36.478Z,31
2023-01-29T02:43:48.726Z,25
2023-01-29T02:45:00.040Z,29
2023-01-29T02:46:15.751Z,31
2023-01-29T02:47:25.290Z,28
2023-01-29T02:48:39.939Z,26
2023-01-29T02:49:48.212Z,33
2023-01-29T02:51:04.408Z,39
2023-01-29T02:52:13.442Z,29
2023-01-29T02:53:20.408Z,26
2023-01-29T02:54:38.171Z,25
2023-01-29T02:55:54.169Z,30
2023-01-29T02:57:05.774Z,33
2023-01-29T02:58:18.790Z,26
2023-01-29T02:59:30.933Z,25
2023-01-29T03:00:39.749Z,29
2023-01-29T03:01:47.746Z,44
2023-01-29T03:02:57.976Z,35
2023-01-29T03:04:10.835Z,40
2023-01-29T03:05:17.977Z,34
2023-01-29T03:06:26.254Z,42
2023-01-29T03:07:36.175Z,31
2023-01-29T03:08:57.220Z,27
2023-01-29T03:10:10.798Z,26
2023-01-29T03:11:23.567Z,27
2023-01-29T03:12:33.517Z,33
2023-01-29T03:13:42.458Z,33
2023-01-29T03:14:52.438Z,35
2023-01-29T03:16:05.600Z,33
2023-01-29T03:17:18.134Z,31
2023-01-29T03:18:27.179Z,25
2023-01-29T03:19:34.585Z,25
2023-01-29T03:20:44.856Z,34
2023-01-29T03:21:57.226Z,34
2023-01-29T03:23:04.206Z,43
2023-01-29T03:24:16.712Z,28
2023-01-29T03:25:29.399Z,32
2023-01-29T03:26:41.990Z,33
2023-01-29T03:27:55.538Z,40
2023-01-29T03:29:08.522Z,43
2023-01-29T03:30:21.259Z,36
2023-01-29T03:31:33.642Z,32
2023-01-29T03:32:45.962Z,31
2023-01-29T03:33:53.059Z,34
2023-01-29T03:35:12.042Z,25
2023-01-29T03:36:19.207Z,33
2023-01-29T03:37:32.301Z,33
2023-01-29T03:38:40.143Z,36
2023-01-29T03:39:47.397Z,36
2023-01-29T03:40:56.222Z,43
2023-01-29T03:42:10.636Z,42
2023-01-29T03:43:23.135Z,37
2023-01-29T03:44:40.755Z,41
2023-01-29T03:45:53.880Z,25
2023-01-29T03:47:08.742Z,25
2023-01-29T03:48:18.822Z,30
2023-01-29T03:49:31.121Z,32
2023-01-29T03:50:46.527Z,25
2023-01-29T03:52:01.730Z,26
2023-01-29T03:53:15.045Z,25
2023-01-29T03:54:24.962Z,27
2023-01-29T03:55:32.232Z,30
2023-01-29T03:56:44.626Z,27
2023-01-29T03:58:01.156Z,25
2023-01-29T03:59:11.561Z,26
2023-01-29T04:00:30.383Z,31
2023-01-29T04:02:56.198Z,29
2023-01-29T04:04:15.571Z,29
2023-01-29T04:05:22.474Z,34
2023-01-29T04:06:29.611Z,39
2023-01-29T04:07:36.753Z,27
2023-01-29T04:08:44.506Z,25
2023-01-29T04:10:01.941Z,27
2023-01-29T04:11:11.262Z,27
2023-01-29T04:12:19.498Z,31
2023-01-29T04:13:30.608Z,26
2023-01-29T04:14:37.990Z,31
2023-01-29T04:15:44.918Z,35
2023-01-29T04:16:55.170Z,34
2023-01-29T04:18:02.414Z,29
2023-01-29T04:19:09.461Z,38
2023-01-29T04:20:17.783Z,31
2023-01-29T04:21:24.637Z,34
2023-01-29T04:22:33.173Z,36
2023-01-29T04:23:42.347Z,31
2023-01-29T04:24:50.122Z,35
2023-01-29T04:25:57.540Z,33
2023-01-29T04:27:15.006Z,44
2023-01-29T04:28:30.269Z,32
2023-01-29T04:29:44.679Z,37
2023-01-29T04:31:01.666Z,33
2023-01-29T04:32:08.505Z,31
2023-01-29T04:33:20.685Z,33
2023-01-29T04:34:38.478Z,36
2023-01-29T04:35:51.770Z,41
2023-01-29T04:37:03.993Z,36
2023-01-29T04:38:19.441Z,42
2023-01-29T04:39:37.037Z,37
2023-01-29T04:40:44.281Z,34
2023-01-29T04:41:57.777Z,36
2023-01-29T04:43:16.021Z,33
2023-01-29T04:44:29.237Z,31
2023-01-29T04:45:44.798Z,38
2023-01-29T04:47:02.480Z,41
2023-01-29T04:48:10.646Z,30
2023-01-29T04:49:21.293Z,29
2023-01-29T04:50:33.590Z,32
2023-01-29T04:51:45.014Z,28
2023-01-29T04:52:56.298Z,29
2023-01-29T04:54:03.961Z,31
2023-01-29T04:55:11.762Z,37
2023-01-29T04:56:24.798Z,34
2023-01-29T04:57:37.224Z,45
2023-01-29T04:58:55.998Z,37
2023-01-29T05:00:04.805Z,30
2023-01-29T05:01:17.284Z,25
2023-01-29T05:02:25.493Z,29
2023-01-29T05:03:33.232Z,33
2023-01-29T05:04:41.089Z,35
2023-01-29T05:05:49.185Z,27
2023-01-29T05:06:56.497Z,29
2023-01-29T05:08:07.052Z,37
2023-01-29T05:09:15.189Z,32
2023-01-29T05:10:23.869Z,31
2023-01-29T05:11:32.450Z,25
2023-01-29T05:12:40.468Z,30
2023-01-29T05:13:48.015Z,31
2023-01-29T05:14:56.073Z,31
2023-01-29T05:16:04.288Z,30
2023-01-29T05:17:16.592Z,32
2023-01-29T05:18:24.098Z,29
2023-01-29T05:19:31.477Z,27
2023-01-29T05:20:40.043Z,38
2023-01-29T05:21:48.620Z,32
2023-01-29T05:22:55.942Z,31
2023-01-29T05:24:04.106Z,28
2023-01-29T05:25:19.468Z,31
2023-01-29T05:26:26.676Z,32
2023-01-29T05:27:40.632Z,29
2023-01-29T05:28:56.025Z,28
2023-01-29T05:30:02.940Z,27
2023-01-29T05:31:10.852Z,31
2023-01-29T05:32:19.096Z,33
2023-01-29T05:33:26.093Z,35
2023-01-29T05:34:33.194Z,26
2023-01-29T05:35:40.365Z,31
2023-01-29T05:36:47.444Z,27
2023-01-29T05:37:54.745Z,28
2023-01-29T05:39:02.014Z,29
2023-01-29T05:40:11.434Z,32
2023-01-29T05:41:19.404Z,35
2023-01-29T05:42:27.583Z,34
2023-01-29T05:43:36.972Z,25
2023-01-29T05:44:44.023Z,30
2023-01-29T05:45:51.440Z,32
2023-01-29T05:46:58.831Z,30
2023-01-29T05:48:05.961Z,38
2023-01-29T05:49:13.780Z,29
2023-01-29T05:50:21.581Z,31
2023-01-29T05:51:28.820Z,28
2023-01-29T05:52:36.834Z,25
2023-01-29T05:53:44.888Z,26
2023-01-29T05:54:52.364Z,25
2023-01-29T05:55:59.417Z,25
2023-01-29T05:57:06.644Z,29
2023-01-29T05:58:14.756Z,38
2023-01-29T05:59:22.003Z,33
2023-01-29T06:00:29.567Z,26
2023-01-29T06:01:37.096Z,27
2023-01-29T06:02:44.257Z,34
2023-01-29T06:03:51.385Z,34
2023-01-29T06:04:59.033Z,28
2023-01-29T06:06:06.105Z,36
2023-01-29T06:07:14.852Z,34
2023-01-29T06:08:21.852Z,25
2023-01-29T06:09:29.999Z,34
2023-01-29T06:10:36.953Z,28
2023-01-29T06:11:44.157Z,28
2023-01-29T06:12:53.407Z,33
2023-01-29T06:14:00.572Z,26
2023-01-29T06:15:08.049Z,37
2023-01-29T06:16:16.407Z,28
2023-01-29T06:17:23.334Z,30
2023-01-29T06:18:31.129Z,30
2023-01-29T06:19:39.279Z,27
2023-01-29T06:20:46.321Z,32
2023-01-29T06:21:54.513Z,33
2023-01-29T06:23:01.746Z,29
2023-01-29T06:24:09.761Z,27
2023-01-29T06:25:16.994Z,30
2023-01-29T06:26:24.392Z,34
2023-01-29T06:27:31.584Z,32
2023-01-29T06:28:40.672Z,31
2023-01-29T06:29:47.912Z,33
2023-01-29T06:30:56.259Z,36
2023-01-29T06:32:03.620Z,34
2023-01-29T06:33:11.546Z,39
2023-01-29T06:34:18.937Z,34
2023-01-29T06:35:28.030Z,31
2023-01-29T06:36:35.377Z,37
2023-01-29T06:37:43.362Z,33
2023-01-29T06:38:50.489Z,29
2023-01-29T06:39:57.835Z,30
2023-01-29T06:41:10.388Z,28
2023-01-29T06:42:20.141Z,29
2023-01-29T06:43:27.626Z,25
2023-01-29T06:44:35.048Z,31
2023-01-29T06:45:42.470Z,32
2023-01-29T06:46:55.071Z,35
2023-01-29T06:48:02.349Z,33
2023-01-29T06:49:09.977Z,31
2023-01-29T06:50:18.343Z,29
2023-01-29T06:51:25.263Z,36
2023-01-29T06:52:33.324Z,32
2023-01-29T06:53:47.007Z,38
2023-01-29T06:55:08.888Z,30
2023-01-29T06:56:07.497Z,31
2023-01-29T06:57:14.724Z,29
2023-01-29T06:58:21.617Z,42
2023-01-29T06:59:28.678Z,34
2023-01-29T07:00:36.021Z,34
2023-01-29T07:01:43.273Z,41
2023-01-29T07:02:50.870Z,41
2023-01-29T07:03:58.725Z,38
2023-01-29T07:05:05.968Z,41
2023-01-29T07:06:14.022Z,47
2023-01-29T07:07:22.194Z,46
2023-01-29T07:08:29.277Z,29
2023-01-29T07:09:36.437Z,44
2023-01-29T07:10:43.551Z,36
2023-01-29T07:11:50.694Z,35
2023-01-29T07:12:57.901Z,37
2023-01-29T07:14:06.753Z,35
2023-01-29T07:15:14.121Z,34
2023-01-29T07:16:21.468Z,31
2023-01-29T07:17:28.981Z,46
2023-01-29T07:18:36.389Z,38
2023-01-29T07:19:43.594Z,44
2023-01-29T07:20:50.644Z,49
2023-01-29T07:21:58.769Z,46
2023-01-29T07:23:05.970Z,42
2023-01-29T07:24:13.369Z,49
2023-01-29T07:25:20.946Z,59
2023-01-29T07:26:29.225Z,53
2023-01-29T07:27:36.452Z,59
2023-01-29T07:28:44.506Z,55
2023-01-29T07:29:51.688Z,62
2023-01-29T07:30:59.011Z,55
2023-01-29T07:32:06.213Z,62
2023-01-29T07:33:14.385Z,61
2023-01-29T07:34:21.229Z,62
2023-01-29T07:35:28.896Z,60
2023-01-29T07:36:36.186Z,65
2023-01-29T07:37:44.600Z,69
2023-01-29T07:38:54.286Z,61
2023-01-29T07:40:01.423Z,69
2023-01-29T07:41:09.208Z,59
2023-01-29T07:42:16.277Z,72
2023-01-29T07:43:23.326Z,68
2023-01-29T07:44:30.405Z,74
2023-01-29T07:45:37.685Z,88
2023-01-29T07:46:44.737Z,94
2023-01-29T07:47:51.860Z,88
2023-01-29T07:49:00.096Z,85
2023-01-29T07:50:07.205Z,84
2023-01-29T07:51:14.758Z,84
2023-01-29T07:52:22.430Z,82
2023-01-29T07:53:29.125Z,83
2023-01-29T07:54:36.723Z,87
2023-01-29T07:55:44.884Z,86
2023-01-29T07:56:51.819Z,88
2023-01-29T07:57:58.991Z,89
2023-01-29T07:59:07.227Z,89
2023-01-29T08:00:14.539Z,87
2023-01-29T08:01:22.047Z,93
2023-01-29T08:02:29.629Z,93
2023-01-29T08:03:36.863Z,94
2023-01-29T08:04:44.240Z,108
2023-01-29T08:05:51.502Z,105
2023-01-29T08:06:58.589Z,123
2023-01-29T08:08:07.853Z,104
2023-01-29T08:09:13.911Z,113
2023-01-29T08:10:21.000Z,101
2023-01-29T08:11:29.383Z,102
2023-01-29T08:12:37.486Z,108
2023-01-29T08:13:44.773Z,90
2023-01-29T08:14:51.924Z,103
2023-01-29T08:15:59.320Z,103
2023-01-29T08:17:06.693Z,103
2023-01-29T08:18:13.882Z,98
2023-01-29T08:19:21.187Z,101
2023-01-29T08:20:28.570Z,104
2023-01-29T08:21:35.704Z,106
2023-01-29T08:22:42.788Z,108
2023-01-29T08:23:50.013Z,110
2023-01-29T08:25:06.217Z,100
2023-01-29T08:26:04.901Z,98
2023-01-29T08:27:11.980Z,110
2023-01-29T08:28:19.320Z,101
2023-01-29T08:29:26.672Z,107
2023-01-29T08:30:33.833Z,103
2023-01-29T08:31:40.915Z,100
2023-01-29T08:32:48.845Z,108
2023-01-29T08:33:56.164Z,108
2023-01-29T08:35:03.407Z,101
2023-01-29T08:36:11.032Z,106
2023-01-29T08:37:19.148Z,103
2023-01-29T08:38:26.426Z,118
2023-01-29T08:39:34.630Z,109
2023-01-29T08:40:41.458Z,110
2023-01-29T08:41:48.639Z,111
2023-01-29T08:42:57.027Z,106
2023-01-29T08:44:09.376Z,120
2023-01-29T08:45:16.947Z,116
2023-01-29T08:46:24.260Z,116
2023-01-29T08:47:31.340Z,112
2023-01-29T08:48:39.397Z,119
2023-01-29T08:49:47.590Z,115
2023-01-29T08:50:54.808Z,121
2023-01-29T08:52:03.176Z,118
2023-01-29T08:53:09.083Z,121
2023-01-29T08:54:17.392Z,114
2023-01-29T08:55:25.294Z,114
2023-01-29T08:56:32.380Z,111
2023-01-29T08:57:40.623Z,109
2023-01-29T08:58:48.009Z,117
2023-01-29T08:59:56.311Z,117
2023-01-29T09:01:03.575Z,118
2023-01-29T09:02:14.055Z,118
2023-01-29T09:03:21.017Z,117
2023-01-29T09:04:28.352Z,120
2023-01-29T09:05:35.641Z,129
2023-01-29T09:06:42.764Z,121
2023-01-29T09:07:49.982Z,111
2023-01-29T09:08:57.035Z,105
2023-01-29T09:10:04.167Z,102
2023-01-29T09:11:11.672Z,102
2023-01-29T09:12:18.975Z,104
2023-01-29T09:13:26.533Z,105
2023-01-29T09:14:33.623Z,97
2023-01-29T09:15:40.692Z,96
2023-01-29T09:16:48.002Z,102
2023-01-29T09:17:55.045Z,96
2023-01-29T09:19:02.109Z,95
2023-01-29T09:20:09.320Z,88
2023-01-29T09:21:17.391Z,94
2023-01-29T09:22:24.560Z,93
2023-01-29T09:23:31.612Z,93
2023-01-29T09:24:38.668Z,85
2023-01-29T09:25:45.828Z,88
2023-01-29T09:26:52.979Z,87
2023-01-29T09:28:00.240Z,94
2023-01-29T09:29:07.298Z,78
2023-01-29T09:30:14.476Z,94
2023-01-29T09:31:22.125Z,83
2023-01-29T09:32:52.997Z,88
2023-01-29T09:33:36.360Z,80
2023-01-29T09:34:43.545Z,87
2023-01-29T09:35:50.508Z,93
2023-01-29T09:36:57.666Z,95
2023-01-29T09:38:04.763Z,99
2023-01-29T09:39:13.130Z,77
2023-01-29T09:40:20.140Z,69
2023-01-29T09:41:30.147Z,84
2023-01-29T09:42:45.572Z,90
2023-01-29T09:43:52.539Z,86
2023-01-29T09:44:59.858Z,78
2023-01-29T09:46:10.082Z,64
2023-01-29T09:47:19.923Z,63
2023-01-29T09:48:27.255Z,67
2023-01-29T09:49:34.407Z,76
2023-01-29T09:50:41.555Z,73
2023-01-29T09:51:48.587Z,72
2023-01-29T09:53:00.868Z,70
2023-01-29T09:54:13.109Z,73
2023-01-29T09:55:20.206Z,73
2023-01-29T09:56:30.439Z,69
2023-01-29T09:57:37.457Z,65
2023-01-29T09:58:49.750Z,63
2023-01-29T09:59:56.870Z,56
2023-01-29T10:01:04.008Z,68
2023-01-29T10:02:16.253Z,71
2023-01-29T10:03:28.776Z,72
2023-01-29T10:04:46.205Z,67
2023-01-29T10:05:53.208Z,70
2023-01-29T10:07:10.821Z,58
2023-01-29T10:08:25.699Z,53
2023-01-29T10:09:38.092Z,45
2023-01-29T10:10:50.189Z,63
2023-01-29T10:12:03.092Z,71
2023-01-29T10:13:15.222Z,53
2023-01-29T10:14:32.949Z,54
2023-01-29T10:15:48.176Z,48
2023-01-29T10:17:05.665Z,40
2023-01-29T10:18:21.116Z,43
2023-01-29T10:19:30.959Z,42
2023-01-29T10:20:48.264Z,41
2023-01-29T10:22:00.579Z,44
2023-01-29T10:23:15.824Z,45
2023-01-29T10:24:25.435Z,50
2023-01-29T10:25:42.748Z,37
2023-01-29T10:26:49.883Z,35
2023-01-29T10:27:57.054Z,46
2023-01-29T10:29:04.135Z,38
2023-01-29T10:30:11.241Z,42
2023-01-29T10:31:23.716Z,46
2023-01-29T10:32:36.675Z,35
2023-01-29T10:33:48.986Z,38
2023-01-29T10:34:56.042Z,35
2023-01-29T10:36:08.219Z,33
2023-01-29T10:37:21.056Z,39
2023-01-29T10:38:33.642Z,51
2023-01-29T10:39:49.166Z,35
2023-01-29T10:40:56.599Z,34
2023-01-29T10:42:07.995Z,29
2023-01-29T10:43:26.451Z,34
2023-01-29T10:44:33.710Z,37
2023-01-29T10:45:43.903Z,40
2023-01-29T10:46:56.163Z,41
2023-01-29T10:48:06.374Z,45
2023-01-29T10:49:13.447Z,50
2023-01-29T10:50:29.819Z,46
2023-01-29T10:51:48.804Z,36
2023-01-29T10:53:01.638Z,35
2023-01-29T10:54:19.815Z,30
2023-01-29T10:55:30.952Z,31
2023-01-29T10:56:49.525Z,28
2023-01-29T10:57:58.184Z,33
2023-01-29T10:59:10.638Z,28
2023-01-29T11:00:23.291Z,34
2023-01-29T11:01:30.799Z,31
2023-01-29T11:02:38.099Z,33
2023-01-29T11:03:48.056Z,47
2023-01-29T11:05:03.542Z,42
2023-01-29T11:06:10.695Z,34
2023-01-29T11:07:23.305Z,25
2023-01-29T11:08:30.596Z,32
2023-01-29T11:09:43.041Z,27
2023-01-29T11:10:54.418Z,31
2023-01-29T11:12:07.359Z,32
2023-01-29T11:13:19.839Z,30
2023-01-29T11:14:27.398Z,28
2023-01-29T11:15:41.460Z,32
2023-01-29T11:16:48.943Z,30
2023-01-29T11:17:56.168Z,35
2023-01-29T11:19:06.792Z,35
2023-01-29T11:20:14.830Z,34
2023-01-29T11:21:29.335Z,32
2023-01-29T11:22:36.683Z,41
2023-01-29T11:23:44.210Z,37
2023-01-29T11:24:52.071Z,31
2023-01-29T11:26:09.861Z,30
2023-01-29T11:27:22.663Z,37
2023-01-29T11:28:31.583Z,32
2023-01-29T11:29:44.285Z,43
2023-01-29T11:30:51.491Z,33
2023-01-29T11:31:58.557Z,31
2023-01-29T11:33:05.869Z,34
2023-01-29T11:34:16.335Z,34
2023-01-29T11:35:23.398Z,36
2023-01-29T11:36:30.782Z,30
2023-01-29T11:37:40.682Z,28
2023-01-29T11:38:47.916Z,28
2023-01-29T11:39:55.320Z,27
2023-01-29T11:41:02.950Z,35
2023-01-29T11:42:11.213Z,35
2023-01-29T11:43:23.554Z,32
2023-01-29T11:44:30.769Z,32
2023-01-29T11:45:43.398Z,30
2023-01-29T11:46:51.474Z,35
2023-01-29T11:47:58.618Z,33
2023-01-29T11:49:14.203Z,33
2023-01-29T11:50:12.962Z,32
2023-01-29T11:51:25.989Z,37
2023-01-29T11:52:34.046Z,32
2023-01-29T11:53:41.590Z,38
2023-01-29T11:54:49.174Z,34
2023-01-29T11:55:59.217Z,25
2023-01-29T11:57:09.588Z,33
2023-01-29T11:58:27.244Z,25
2023-01-29T11:59:35.427Z,25
2023-01-29T12:00:49.153Z,29
2023-01-29T12:01:56.070Z,29
2023-01-29T12:03:09.414Z,37
2023-01-29T12:04:19.939Z,33
2023-01-29T12:05:27.442Z,29
2023-01-29T12:06:35.637Z,25
2023-01-29T12:07:42.899Z,50
2023-01-29T12:08:51.983Z,31
2023-01-29T12:09:59.298Z,34
2023-01-29T12:11:07.454Z,25
2023-01-29T12:12:14.556Z,35
2023-01-29T12:13:21.850Z,25
2023-01-29T12:14:30.135Z,34
2023-01-29T12:15:39.934Z,25
2023-01-29T12:16:47.053Z,33
2023-01-29T12:17:59.535Z,31
2023-01-29T12:19:14.774Z,25
2023-01-29T12:20:32.361Z,29
2023-01-29T12:21:42.683Z,30
2023-01-29T12:22:54.891Z,39
2023-01-29T12:24:02.340Z,33
2023-01-29T12:25:17.758Z,39
2023-01-29T12:26:26.073Z,34
2023-01-29T12:27:38.940Z,39
2023-01-29T12:28:47.161Z,46
2023-01-29T12:29:59.520Z,46
2023-01-29T12:31:15.777Z,41
2023-01-29T12:32:25.774Z,36
2023-01-29T12:33:43.517Z,44
2023-01-29T12:35:01.118Z,45
2023-01-29T12:36:18.778Z,42
2023-01-29T12:37:28.771Z,43
2023-01-29T12:38:46.335Z,44
2023-01-29T12:39:54.282Z,26
2023-01-29T12:41:01.687Z,29
2023-01-29T12:42:11.830Z,37
2023-01-29T12:43:24.125Z,44
2023-01-29T12:44:34.118Z,44
2023-01-29T12:45:44.341Z,52
2023-01-29T12:46:51.471Z,55
2023-01-29T12:47:59.796Z,64
2023-01-29T12:49:08.538Z,52
2023-01-29T12:50:15.808Z,56
2023-01-29T12:51:26.089Z,59
2023-01-29T12:52:39.182Z,55
2023-01-29T12:53:51.702Z,48
2023-01-29T12:55:01.967Z,49
2023-01-29T12:56:19.938Z,49
2023-01-29T12:57:27.749Z,51
2023-01-29T12:58:39.967Z,41
2023-01-29T12:59:50.176Z,48
2023-01-29T13:01:00.760Z,44
2023-01-29T13:02:11.521Z,35
2023-01-29T13:03:29.044Z,45
2023-01-29T13:04:44.991Z,42
2023-01-29T13:05:57.934Z,40
2023-01-29T13:07:12.158Z,42
2023-01-29T13:08:20.565Z,47
2023-01-29T13:09:27.861Z,43
2023-01-29T13:10:35.374Z,40
2023-01-29T13:11:42.631Z,38
2023-01-29T13:12:54.875Z,39
2023-01-29T13:14:10.370Z,41
2023-01-29T13:15:25.850Z,34
2023-01-29T13:16:38.265Z,35
2023-01-29T13:17:45.149Z,35
2023-01-29T13:18:58.506Z,40
2023-01-29T13:20:05.621Z,35
2023-01-29T13:21:23.302Z,29
2023-01-29T13:22:30.539Z,30
2023-01-29T13:23:38.062Z,33
2023-01-29T13:25:03.531Z,28
2023-01-29T13:25:58.100Z,38
2023-01-29T13:27:05.355Z,39
2023-01-29T13:28:12.370Z,32
2023-01-29T13:29:24.837Z,36
2023-01-29T13:30:32.333Z,34
2023-01-29T13:31:39.312Z,40
2023-01-29T13:32:47.334Z,42
2023-01-29T13:33:53.619Z,43
2023-01-29T13:35:06.303Z,43
2023-01-29T13:36:16.083Z,34
2023-01-29T13:37:23.093Z,47
2023-01-29T13:38:38.329Z,38
2023-01-29T13:39:51.957Z,31
2023-01-29T13:40:59.507Z,41
2023-01-29T13:42:09.761Z,50
2023-01-29T13:43:19.987Z,51
2023-01-29T13:44:37.757Z,41
2023-01-29T13:45:46.541Z,45
2023-01-29T13:46:53.617Z,48
2023-01-29T13:48:03.838Z,50
2023-01-29T13:49:14.870Z,50
2023-01-29T13:50:25.247Z,49
2023-01-29T13:51:35.065Z,44
2023-01-29T13:52:42.459Z,40
2023-01-29T13:53:54.717Z,43
2023-01-29T13:55:04.316Z,45
2023-01-29T13:56:17.695Z,42
2023-01-29T13:57:35.314Z,46
2023-01-29T13:58:47.663Z,51
2023-01-29T13:59:57.834Z,42
2023-01-29T14:01:05.140Z,41
2023-01-29T14:02:13.218Z,46
2023-01-29T14:03:23.422Z,55
2023-01-29T14:04:30.770Z,39
2023-01-29T14:05:37.909Z,36
2023-01-29T14:06:45.057Z,37
2023-01-29T14:07:52.402Z,41
2023-01-29T14:09:04.575Z,50
2023-01-29T14:10:21.893Z,41
2023-01-29T14:11:29.280Z,44
2023-01-29T14:12:39.487Z,47
2023-01-29T14:13:46.649Z,50
2023-01-29T14:14:53.837Z,52
2023-01-29T14:16:01.169Z,49
2023-01-29T14:17:08.213Z,57
2023-01-29T14:18:15.319Z,55
2023-01-29T14:19:25.039Z,45
2023-01-29T14:20:43.241Z,62
2023-01-29T14:21:49.889Z,64
2023-01-29T14:22:56.963Z,45
2023-01-29T14:24:04.082Z,48
2023-01-29T14:25:19.653Z,52
2023-01-29T14:26:26.639Z,59
2023-01-29T14:27:42.067Z,55
2023-01-29T14:28:52.330Z,56
2023-01-29T14:30:02.586Z,60
2023-01-29T14:31:09.816Z,66
2023-01-29T14:32:16.997Z,74
2023-01-29T14:33:24.075Z,76
2023-01-29T14:34:31.362Z,80
2023-01-29T14:35:38.480Z,91
2023-01-29T14:36:45.614Z,71
2023-01-29T14:37:52.815Z,79
2023-01-29T14:39:02.509Z,81
2023-01-29T14:40:09.629Z,88
2023-01-29T14:41:22.479Z,90
2023-01-29T14:42:32.321Z,91
2023-01-29T14:43:39.450Z,95
2023-01-29T14:44:46.742Z,95
2023-01-29T14:45:58.824Z,110
2023-01-29T14:47:14.290Z,97
2023-01-29T14:48:26.558Z,107
2023-01-29T14:49:38.982Z,98
2023-01-29T14:50:51.226Z,99
2023-01-29T14:51:58.611Z,104
2023-01-29T14:53:05.633Z,110
2023-01-29T14:54:23.018Z,113
2023-01-29T14:55:30.313Z,104
2023-01-29T14:56:46.481Z,103
2023-01-29T14:58:01.547Z,109
2023-01-29T14:59:09.538Z,111
2023-01-29T15:00:16.898Z,114
2023-01-29T15:01:24.011Z,116
2023-01-29T15:02:36.591Z,130
2023-01-29T15:03:43.575Z,128
2023-01-29T15:04:50.819Z,107
2023-01-29T15:05:57.958Z,113
2023-01-29T15:07:05.096Z,116
2023-01-29T15:08:15.333Z,118
2023-01-29T15:09:28.892Z,119
2023-01-29T15:10:42.664Z,117
2023-01-29T15:11:49.781Z,124
2023-01-29T15:13:02.434Z,117
2023-01-29T15:14:19.966Z,108
2023-01-29T15:15:32.981Z,106
2023-01-29T15:16:47.693Z,115
2023-01-29T15:17:57.597Z,115
2023-01-29T15:19:12.899Z,110
2023-01-29T15:20:25.028Z,111
2023-01-29T15:21:36.513Z,105
2023-01-29T15:22:44.021Z,110
2023-01-29T15:23:50.914Z,114
2023-01-29T15:24:58.117Z,114
2023-01-29T15:26:10.867Z,109
2023-01-29T15:27:25.817Z,121
2023-01-29T15:28:33.085Z,109
2023-01-29T15:29:40.225Z,111
2023-01-29T15:30:47.527Z,108
2023-01-29T15:31:54.686Z,111
2023-01-29T15:33:01.998Z,105
2023-01-29T15:34:08.971Z,107
2023-01-29T15:35:16.384Z,117
2023-01-29T15:36:28.654Z,104
2023-01-29T15:37:35.762Z,96
2023-01-29T15:38:42.933Z,99
2023-01-29T15:39:52.055Z,103
2023-01-29T15:40:57.252Z,107
2023-01-29T15:42:04.585Z,103
2023-01-29T15:43:14.773Z,104
2023-01-29T15:44:21.701Z,102
2023-01-29T15:45:29.033Z,108
2023-01-29T15:46:36.222Z,109
2023-01-29T15:47:43.333Z,102
2023-01-29T15:48:50.479Z,112
2023-01-29T15:49:57.771Z,103
2023-01-29T15:51:04.763Z,101
2023-01-29T15:52:11.821Z,110
2023-01-29T15:53:18.957Z,110
2023-01-29T15:54:26.228Z,98
2023-01-29T15:55:33.617Z,101
2023-01-29T15:56:40.937Z,111
2023-01-29T15:57:48.069Z,113
2023-01-29T15:58:55.109Z,115
2023-01-29T16:00:02.341Z,111
2023-01-29T16:01:09.476Z,119
2023-01-29T16:02:16.623Z,111
2023-01-29T16:03:29.061Z,122
2023-01-29T16:04:36.235Z,119
2023-01-29T16:05:44.431Z,117
2023-01-29T16:06:51.596Z,117
2023-01-29T16:07:58.665Z,114
2023-01-29T16:09:06.217Z,124
2023-01-29T16:10:13.452Z,125
2023-01-29T16:11:25.671Z,118
2023-01-29T16:12:32.689Z,116
2023-01-29T16:13:39.839Z,120
2023-01-29T16:14:47.014Z,124
2023-01-29T16:15:54.291Z,119
2023-01-29T16:17:01.623Z,118
2023-01-29T16:18:14.654Z,121
2023-01-29T16:19:24.802Z,113
2023-01-29T16:20:32.000Z,113
2023-01-29T16:21:42.265Z,119
2023-01-29T16:22:49.152Z,110
2023-01-29T16:23:56.269Z,112
2023-01-29T16:25:07.312Z,107
2023-01-29T16:26:14.733Z,112
2023-01-29T16:27:21.819Z,115